Time;durP1;ratioP1;P1;durP2;ratioP2;P2;SDS_P1;SDS_P2;PMS_P1;PMS_P2;Temp;Humidity;BMP_temperature;BMP_pressure;BME280_temperature;BME280_humidity;BME280_pressure;Samples;Min_cycle;Max_cycle;Signal;HPM_P1;HPM_P2
2023/10/24 00:01:57;;;;;;;6.68;5.60;;;;;;;;;;5025732;28;20646;-66
2023/10/24 00:04:22;;;;;;;9.02;6.45;;;;;;;;;;5032574;28;20784;-66
2023/10/24 00:06:48;;;;;;;10.43;6.53;;;;;;;;;;5033414;28;20174;-66
2023/10/24 00:09:13;;;;;;;9.18;7.53;;;;;;;;;;5031642;28;20189;-66
2023/10/24 00:11:38;;;;;;;10.02;7.32;;;;;;;;;;5033806;28;20650;-66
2023/10/24 00:14:03;;;;;;;8.80;7.45;;;;;;;;;;5038128;28;20653;-66
2023/10/24 00:16:29;;;;;;;8.13;6.95;;;;;;;;;;5032111;28;20182;-66
2023/10/24 00:18:54;;;;;;;12.85;8.25;;;;;;;;;;5029259;28;20262;-66
2023/10/24 00:21:19;;;;;;;9.60;8.30;;;;;;;;;;5033099;28;20194;-66
2023/10/24 00:23:44;;;;;;;10.48;8.52;;;;;;;;;;5030157;28;20252;-66
2023/10/24 00:26:10;;;;;;;13.98;10.50;;;;;;;;;;5032034;28;20194;-66
2023/10/24 00:28:35;;;;;;;13.48;9.35;;;;;;;;;;5032612;28;20285;-65
2023/10/24 00:31:00;;;;;;;13.73;10.57;;;;;;;;;;5031133;28;20206;-65
2023/10/24 00:33:26;;;;;;;14.25;11.00;;;;;;;;;;5030902;28;20260;-66
2023/10/24 00:35:51;;;;;;;13.43;11.00;;;;;;;;;;5033107;28;20247;-66
2023/10/24 00:38:16;;;;;;;12.70;10.82;;;;;;;;;;5031854;28;20193;-67
2023/10/24 00:40:41;;;;;;;15.07;10.40;;;;;;;;;;5032419;28;20187;-66
2023/10/24 00:43:07;;;;;;;15.27;11.43;;;;;;;;;;5032799;28;20285;-66
2023/10/24 00:45:33;;;;;;;14.50;10.95;;;;;;;;;;5031436;28;20249;-67
2023/10/24 00:47:59;;;;;;;17.20;13.25;;;;;;;;;;5032841;28;20305;-66
2023/10/24 00:50:24;;;;;;;16.42;13.15;;;;;;;;;;5031475;28;20655;-66
2023/10/24 00:52:50;;;;;;;19.23;12.80;;;;;;;;;;5035327;28;20206;-66
2023/10/24 00:55:16;;;;;;;18.63;13.18;;;;;;;;;;5030706;28;20178;-66
2023/10/24 00:57:42;;;;;;;17.63;13.00;;;;;;;;;;5032950;28;20178;-66
2023/10/24 01:00:07;;;;;;;18.70;11.98;;;;;;;;;;5028745;28;20182;-65
2023/10/24 01:02:33;;;;;;;17.40;12.20;;;;;;;;;;5030852;28;20215;-65
2023/10/24 01:04:59;;;;;;;17.83;12.05;;;;;;;;;;5032406;28;20183;-65
2023/10/24 01:07:24;;;;;;;20.75;14.52;;;;;;;;;;5028434;28;20642;-65
2023/10/24 01:09:49;;;;;;;18.90;12.02;;;;;;;;;;5027855;28;20206;-66
2023/10/24 01:12:14;;;;;;;15.07;12.15;;;;;;;;;;5031030;28;20183;-66
2023/10/24 01:14:40;;;;;;;22.60;12.20;;;;;;;;;;5026446;28;20245;-65
2023/10/24 01:17:09;;;;;;;17.52;12.45;;;;;;;;;;5029708;28;20178;-65
2023/10/24 01:19:34;;;;;;;20.10;12.48;;;;;;;;;;5029367;28;20668;-65
2023/10/24 01:21:59;;;;;;;18.10;12.13;;;;;;;;;;5029674;28;20194;-65
2023/10/24 01:24:26;;;;;;;22.13;13.27;;;;;;;;;;5029937;28;20486;-66
2023/10/24 01:26:52;;;;;;;18.08;12.13;;;;;;;;;;5025949;28;20182;-66
2023/10/24 01:29:17;;;;;;;17.70;11.95;;;;;;;;;;5031400;28;20190;-65
2023/10/24 01:31:42;;;;;;;23.33;12.95;;;;;;;;;;5029874;28;20178;-65
2023/10/24 01:34:07;;;;;;;16.35;11.95;;;;;;;;;;5030243;28;20237;-65
2023/10/24 01:36:33;;;;;;;18.50;11.95;;;;;;;;;;5031409;28;20178;-65
2023/10/24 01:38:58;;;;;;;16.05;11.45;;;;;;;;;;5031915;28;20634;-66
2023/10/24 01:41:23;;;;;;;18.85;11.70;;;;;;;;;;5030616;28;20235;-65
2023/10/24 01:43:48;;;;;;;16.10;11.30;;;;;;;;;;5030149;28;20668;-66
2023/10/24 01:46:13;;;;;;;19.08;11.68;;;;;;;;;;5031267;28;20182;-65
2023/10/24 01:48:40;;;;;;;16.70;11.35;;;;;;;;;;5029161;28;20285;-65
2023/10/24 01:51:05;;;;;;;16.27;11.85;;;;;;;;;;5027047;28;20214;-64
2023/10/24 01:53:30;;;;;;;18.05;11.70;;;;;;;;;;5026828;28;20271;-65
2023/10/24 01:55:56;;;;;;;19.45;11.68;;;;;;;;;;5028338;28;20186;-65
2023/10/24 01:58:21;;;;;;;16.88;10.93;;;;;;;;;;5027705;28;20189;-65
2023/10/24 02:00:46;;;;;;;13.93;10.40;;;;;;;;;;5025726;28;20707;-65
2023/10/24 02:03:11;;;;;;;14.70;11.15;;;;;;;;;;5028965;28;20666;-65
2023/10/24 02:05:37;;;;;;;17.33;11.52;;;;;;;;;;5031146;28;20177;-65
2023/10/24 02:08:03;;;;;;;14.23;11.05;;;;;;;;;;5029900;28;20193;-65
2023/10/24 02:10:28;;;;;;;17.75;10.63;;;;;;;;;;5030209;28;20214;-65
2023/10/24 02:12:53;;;;;;;20.08;10.73;;;;;;;;;;5031311;28;20611;-65
2023/10/24 02:15:18;;;;;;;18.20;11.45;;;;;;;;;;5030336;28;20232;-65
2023/10/24 02:17:43;;;;;;;13.75;9.77;;;;;;;;;;5031010;28;20684;-65
2023/10/24 02:20:09;;;;;;;15.50;10.15;;;;;;;;;;5030413;28;20646;-64
2023/10/24 02:22:34;;;;;;;16.55;9.95;;;;;;;;;;5029758;28;20683;-65
2023/10/24 02:24:59;;;;;;;18.27;11.25;;;;;;;;;;5029493;28;20208;-65
2023/10/24 02:27:25;;;;;;;15.93;10.43;;;;;;;;;;5030660;28;20178;-64
2023/10/24 02:29:50;;;;;;;13.10;9.70;;;;;;;;;;5030269;28;20700;-64
2023/10/24 02:32:15;;;;;;;13.82;10.05;;;;;;;;;;5030050;28;20649;-65
2023/10/24 02:34:40;;;;;;;14.07;9.80;;;;;;;;;;5029149;28;20206;-66
2023/10/24 02:37:05;;;;;;;14.57;10.27;;;;;;;;;;5027418;28;20181;-66
2023/10/24 02:39:31;;;;;;;14.23;9.73;;;;;;;;;;5029377;28;20193;-66
2023/10/24 02:41:56;;;;;;;11.07;8.77;;;;;;;;;;5029695;28;20182;-66
2023/10/24 02:44:21;;;;;;;11.07;8.27;;;;;;;;;;5029975;28;20277;-66
2023/10/24 02:46:47;;;;;;;11.93;9.00;;;;;;;;;;5029082;28;20685;-66
2023/10/24 02:49:12;;;;;;;12.93;8.13;;;;;;;;;;5030012;28;20186;-66
2023/10/24 02:51:37;;;;;;;12.20;8.95;;;;;;;;;;5029633;28;20181;-66
2023/10/24 02:54:02;;;;;;;16.33;9.60;;;;;;;;;;5030609;28;20208;-66
2023/10/24 02:56:28;;;;;;;14.35;8.38;;;;;;;;;;5031898;28;20264;-66
2023/10/24 02:58:53;;;;;;;13.43;9.13;;;;;;;;;;5033406;28;20236;-66
2023/10/24 03:01:19;;;;;;;12.50;8.48;;;;;;;;;;5027961;28;20588;-66
2023/10/24 03:03:44;;;;;;;13.80;9.40;;;;;;;;;;5032765;28;20281;-66
2023/10/24 03:06:12;;;;;;;14.65;9.50;;;;;;;;;;5034276;28;20658;-66
2023/10/24 03:08:38;;;;;;;13.93;9.13;;;;;;;;;;5034354;28;20181;-67
2023/10/24 03:11:03;;;;;;;16.50;9.32;;;;;;;;;;5032866;28;20209;-66
2023/10/24 03:13:28;;;;;;;13.27;10.02;;;;;;;;;;5034222;28;20190;-66
2023/10/24 03:15:53;;;;;;;13.38;9.07;;;;;;;;;;5034337;28;20614;-66
2023/10/24 03:18:18;;;;;;;13.45;9.63;;;;;;;;;;5032243;28;20200;-66
2023/10/24 03:20:43;;;;;;;12.35;9.05;;;;;;;;;;5034149;28;20170;-66
2023/10/24 03:23:09;;;;;;;16.92;10.52;;;;;;;;;;5029006;28;20214;-67
2023/10/24 03:25:34;;;;;;;15.02;10.32;;;;;;;;;;5034134;28;20267;-66
2023/10/24 03:27:59;;;;;;;14.30;10.02;;;;;;;;;;5033625;28;20190;-67
2023/10/24 03:30:24;;;;;;;16.83;11.00;;;;;;;;;;5034461;28;20202;-66
2023/10/24 03:32:50;;;;;;;16.10;11.88;;;;;;;;;;5032882;28;20606;-67
2023/10/24 03:35:15;;;;;;;17.92;11.20;;;;;;;;;;5032189;28;20190;-67
2023/10/24 03:37:41;;;;;;;16.92;11.93;;;;;;;;;;5032545;28;20240;-67
2023/10/24 03:40:06;;;;;;;21.30;11.30;;;;;;;;;;5036020;28;20240;-67
2023/10/24 03:42:32;;;;;;;19.88;12.63;;;;;;;;;;5039698;28;20182;-66
2023/10/24 03:44:57;;;;;;;21.02;12.77;;;;;;;;;;5035594;28;20547;-66
2023/10/24 03:47:22;;;;;;;17.23;11.52;;;;;;;;;;5038124;28;20210;-67
2023/10/24 03:49:48;;;;;;;18.92;12.25;;;;;;;;;;5037789;28;20198;-67
2023/10/24 03:52:13;;;;;;;17.13;11.68;;;;;;;;;;5036849;28;20182;-67
2023/10/24 03:54:38;;;;;;;19.52;11.98;;;;;;;;;;5035678;28;20691;-67
2023/10/24 03:57:04;;;;;;;18.88;12.20;;;;;;;;;;5036464;28;20191;-67
2023/10/24 03:59:29;;;;;;;20.40;12.45;;;;;;;;;;5037782;28;20646;-67
2023/10/24 04:01:54;;;;;;;17.48;11.50;;;;;;;;;;5033694;28;20233;-67
2023/10/24 04:04:19;;;;;;;17.23;11.93;;;;;;;;;;5030950;28;20252;-68
2023/10/24 04:06:45;;;;;;;16.58;11.85;;;;;;;;;;5031596;28;20232;-65
2023/10/24 04:09:11;;;;;;;19.45;12.57;;;;;;;;;;5033239;28;20661;-65
2023/10/24 04:11:36;;;;;;;18.50;12.00;;;;;;;;;;5033503;28;20202;-65
2023/10/24 04:14:02;;;;;;;23.55;12.57;;;;;;;;;;5031345;28;20244;-66
2023/10/24 04:16:27;;;;;;;17.98;11.73;;;;;;;;;;5032698;28;20175;-66
2023/10/24 04:18:53;;;;;;;18.58;11.90;;;;;;;;;;5032367;28;20261;-66
2023/10/24 04:21:18;;;;;;;20.60;12.90;;;;;;;;;;5032336;28;20221;-67
2023/10/24 04:23:43;;;;;;;17.90;12.70;;;;;;;;;;5031423;28;20234;-67
2023/10/24 04:26:09;;;;;;;16.27;12.55;;;;;;;;;;5033018;28;20265;-66
2023/10/24 04:28:34;;;;;;;19.85;12.23;;;;;;;;;;5032031;28;20183;-66
2023/10/24 04:30:59;;;;;;;17.25;12.48;;;;;;;;;;5032220;28;20205;-66
2023/10/24 04:33:24;;;;;;;17.20;11.50;;;;;;;;;;5030901;28;20648;-66
2023/10/24 04:35:51;;;;;;;18.42;12.57;;;;;;;;;;5031622;28;20179;-66
2023/10/24 04:38:16;;;;;;;17.80;12.25;;;;;;;;;;5032057;28;20253;-66
2023/10/24 04:40:41;;;;;;;23.48;13.00;;;;;;;;;;5032771;28;20266;-66
2023/10/24 04:43:07;;;;;;;19.85;12.82;;;;;;;;;;5032385;28;20342;-66
2023/10/24 04:45:32;;;;;;;20.88;12.88;;;;;;;;;;5032493;28;20227;-66
2023/10/24 04:47:59;;;;;;;20.02;13.02;;;;;;;;;;5032327;28;20642;-66
2023/10/24 04:50:24;;;;;;;20.33;12.85;;;;;;;;;;5031323;28;20209;-66
2023/10/24 04:52:49;;;;;;;20.92;12.20;;;;;;;;;;5031266;28;20183;-66
2023/10/24 04:55:15;;;;;;;16.50;12.05;;;;;;;;;;5030919;28;20217;-66
2023/10/24 04:57:42;;;;;;;18.77;11.88;;;;;;;;;;5032174;28;20174;-66
2023/10/24 05:00:07;;;;;;;18.02;12.20;;;;;;;;;;5028546;28;20265;-66
2023/10/24 05:02:32;;;;;;;19.40;13.13;;;;;;;;;;5032035;28;20644;-66
2023/10/24 05:04:58;;;;;;;19.17;12.90;;;;;;;;;;5027167;28;20192;-66
2023/10/24 05:07:23;;;;;;;16.92;12.02;;;;;;;;;;5032108;28;20194;-66
2023/10/24 05:09:49;;;;;;;18.48;11.95;;;;;;;;;;5032008;28;20229;-66
2023/10/24 05:12:14;;;;;;;17.58;11.25;;;;;;;;;;5032012;28;20253;-66
2023/10/24 05:14:39;;;;;;;19.17;12.05;;;;;;;;;;5029951;28;20277;-66
2023/10/24 05:17:05;;;;;;;20.70;12.60;;;;;;;;;;5032140;28;20183;-66
2023/10/24 05:19:30;;;;;;;18.73;12.75;;;;;;;;;;5029193;28;20166;-66
2023/10/24 05:21:55;;;;;;;16.92;12.25;;;;;;;;;;5032062;28;20171;-66
2023/10/24 05:24:20;;;;;;;18.63;12.52;;;;;;;;;;5031665;28;20213;-66
2023/10/24 05:26:46;;;;;;;23.45;12.30;;;;;;;;;;5031475;28;20225;-66
2023/10/24 05:29:11;;;;;;;18.05;12.52;;;;;;;;;;5029571;28;20269;-66
2023/10/24 05:31:36;;;;;;;22.60;14.13;;;;;;;;;;5031874;28;20247;-66
2023/10/24 05:34:01;;;;;;;18.67;12.27;;;;;;;;;;5029691;28;20264;-66
2023/10/24 05:36:27;;;;;;;17.08;11.77;;;;;;;;;;5031090;28;20178;-66
2023/10/24 05:38:52;;;;;;;16.88;12.27;;;;;;;;;;5028823;28;20171;-66
2023/10/24 05:41:17;;;;;;;16.13;11.25;;;;;;;;;;5031225;28;20272;-66
2023/10/24 05:43:42;;;;;;;18.60;12.57;;;;;;;;;;5030699;28;20197;-67
2023/10/24 05:46:08;;;;;;;16.77;11.43;;;;;;;;;;5029119;28;20245;-66
2023/10/24 05:48:35;;;;;;;16.75;11.35;;;;;;;;;;5023841;28;20178;-67
2023/10/24 05:51:00;;;;;;;18.08;10.65;;;;;;;;;;5026766;28;20212;-66
2023/10/24 05:53:25;;;;;;;17.83;10.65;;;;;;;;;;5026538;28;20190;-67
2023/10/24 05:55:51;;;;;;;16.35;11.38;;;;;;;;;;5029697;28;20204;-66
2023/10/24 05:58:19;;;;;;;15.60;10.95;;;;;;;;;;5029266;28;20567;-66
2023/10/24 06:00:44;;;;;;;16.42;11.25;;;;;;;;;;5030649;28;20182;-66
2023/10/24 06:03:09;;;;;;;12.93;9.32;;;;;;;;;;5026150;28;20206;-66
2023/10/24 06:05:36;;;;;;;13.65;10.13;;;;;;;;;;5028344;28;20182;-66
2023/10/24 06:08:01;;;;;;;15.80;10.93;;;;;;;;;;5029891;28;20190;-66
2023/10/24 06:10:27;;;;;;;14.07;10.02;;;;;;;;;;5030311;28;20198;-66
2023/10/24 06:12:52;;;;;;;14.32;9.65;;;;;;;;;;5031198;28;20263;-66
2023/10/24 06:15:17;;;;;;;14.68;9.38;;;;;;;;;;5028179;28;20672;-66
2023/10/24 06:17:42;;;;;;;13.38;10.27;;;;;;;;;;5031074;28;20182;-66
2023/10/24 06:20:08;;;;;;;15.20;9.52;;;;;;;;;;5027888;28;20178;-66
2023/10/24 06:22:33;;;;;;;14.70;8.90;;;;;;;;;;5029319;28;20977;-66
2023/10/24 06:24:58;;;;;;;16.10;9.35;;;;;;;;;;5024107;28;20266;-66
2023/10/24 06:27:23;;;;;;;15.35;10.27;;;;;;;;;;5020036;28;20224;-65
2023/10/24 06:29:48;;;;;;;14.63;9.30;;;;;;;;;;5027485;28;20225;-65
2023/10/24 06:32:14;;;;;;;15.60;9.90;;;;;;;;;;5026419;28;20182;-65
2023/10/24 06:34:39;;;;;;;14.23;9.43;;;;;;;;;;5028995;28;20703;-65
2023/10/24 06:37:04;;;;;;;15.35;9.63;;;;;;;;;;5026641;28;20178;-65
2023/10/24 06:39:29;;;;;;;16.20;10.02;;;;;;;;;;5030152;28;20178;-65
2023/10/24 06:41:55;;;;;;;13.10;9.07;;;;;;;;;;5029385;28;20177;-66
2023/10/24 06:44:21;;;;;;;13.05;9.35;;;;;;;;;;5030134;28;20208;-66
2023/10/24 06:46:46;;;;;;;12.55;8.95;;;;;;;;;;5030627;28;20253;-66
2023/10/24 06:49:11;;;;;;;11.48;8.40;;;;;;;;;;5028957;28;20189;-66
2023/10/24 06:51:36;;;;;;;13.88;10.02;;;;;;;;;;5028867;28;20210;-66
2023/10/24 06:54:02;;;;;;;15.27;10.27;;;;;;;;;;5029623;28;20209;-66
2023/10/24 06:56:27;;;;;;;10.65;8.35;;;;;;;;;;5026607;28;20263;-66
2023/10/24 06:58:52;;;;;;;16.38;10.50;;;;;;;;;;5029132;28;20178;-66
2023/10/24 07:01:17;;;;;;;13.63;9.30;;;;;;;;;;5030517;28;20185;-66
2023/10/24 07:03:42;;;;;;;14.10;9.27;;;;;;;;;;5030779;28;20217;-66
2023/10/24 07:06:10;;;;;;;14.27;10.23;;;;;;;;;;5030636;28;20232;-66
2023/10/24 07:08:35;;;;;;;14.07;9.18;;;;;;;;;;5031008;28;20185;-66
2023/10/24 07:11:01;;;;;;;17.85;9.98;;;;;;;;;;5030352;28;20302;-66
2023/10/24 07:13:26;;;;;;;18.30;10.07;;;;;;;;;;5029265;28;20260;-66
2023/10/24 07:15:51;;;;;;;16.80;10.13;;;;;;;;;;5028898;28;20163;-65
2023/10/24 07:18:16;;;;;;;19.00;12.10;;;;;;;;;;5029234;28;20186;-67
2023/10/24 07:20:43;;;;;;;15.32;10.10;;;;;;;;;;5028473;28;20261;-65
2023/10/24 07:23:08;;;;;;;18.75;10.73;;;;;;;;;;5029190;28;20241;-65
2023/10/24 07:25:33;;;;;;;14.18;10.60;;;;;;;;;;5030370;28;20179;-65
2023/10/24 07:27:58;;;;;;;21.17;11.60;;;;;;;;;;5029928;28;20202;-66
2023/10/24 07:30:24;;;;;;;19.67;12.02;;;;;;;;;;5030385;28;20843;-66
2023/10/24 07:32:49;;;;;;;18.55;11.55;;;;;;;;;;5029430;28;20206;-66
2023/10/24 07:35:14;;;;;;;15.32;11.23;;;;;;;;;;5028209;28;20175;-65
2023/10/24 07:37:39;;;;;;;18.17;10.77;;;;;;;;;;5029723;28;20178;-65
2023/10/24 07:40:05;;;;;;;15.52;10.35;;;;;;;;;;5026420;28;20210;-66
2023/10/24 07:42:30;;;;;;;15.35;11.15;;;;;;;;;;5028562;28;20693;-66
2023/10/24 07:44:56;;;;;;;18.90;11.85;;;;;;;;;;5033446;28;20264;-65
2023/10/24 07:47:21;;;;;;;17.27;11.38;;;;;;;;;;5033159;28;20178;-66
2023/10/24 07:49:46;;;;;;;15.52;10.90;;;;;;;;;;5031581;28;20195;-66
2023/10/24 07:52:12;;;;;;;15.13;11.02;;;;;;;;;;5033889;28;20167;-66
2023/10/24 07:54:37;;;;;;;15.48;10.52;;;;;;;;;;5033500;28;20203;-66
2023/10/24 07:57:02;;;;;;;18.05;11.38;;;;;;;;;;5032889;28;20178;-66
2023/10/24 07:59:28;;;;;;;15.90;10.98;;;;;;;;;;5029781;28;20170;-66
2023/10/24 08:01:53;;;;;;;20.25;12.60;;;;;;;;;;5032276;28;20170;-66
2023/10/24 08:04:18;;;;;;;18.33;12.32;;;;;;;;;;5030867;28;20199;-65
2023/10/24 08:06:44;;;;;;;17.20;11.45;;;;;;;;;;5030035;28;20186;-66
2023/10/24 08:09:09;;;;;;;19.67;13.57;;;;;;;;;;5045701;28;20179;-66
2023/10/24 08:11:34;;;;;;;20.80;12.32;;;;;;;;;;5033364;28;20202;-66
2023/10/24 08:13:59;;;;;;;16.13;11.38;;;;;;;;;;5032382;28;20225;-66
2023/10/24 08:16:24;;;;;;;16.50;11.48;;;;;;;;;;5031168;28;20172;-65
2023/10/24 08:18:50;;;;;;;14.30;10.57;;;;;;;;;;5030349;28;20182;-66
2023/10/24 08:21:15;;;;;;;17.55;11.35;;;;;;;;;;5029081;28;20170;-65
2023/10/24 08:23:40;;;;;;;14.60;10.18;;;;;;;;;;5030217;28;20202;-65
2023/10/24 08:26:05;;;;;;;14.75;10.70;;;;;;;;;;5032726;28;20272;-65
2023/10/24 08:28:32;;;;;;;14.68;10.55;;;;;;;;;;5032455;28;20180;-65
2023/10/24 08:30:57;;;;;;;13.70;9.25;;;;;;;;;;5031686;28;20205;-66
2023/10/24 08:33:22;;;;;;;13.45;9.85;;;;;;;;;;5031355;28;20206;-66
2023/10/24 08:35:47;;;;;;;17.05;10.48;;;;;;;;;;5030780;28;20179;-66
2023/10/24 08:38:13;;;;;;;14.40;10.82;;;;;;;;;;5030118;28;20664;-66
2023/10/24 08:40:39;;;;;;;14.13;9.75;;;;;;;;;;5033012;28;20170;-66
2023/10/24 08:43:05;;;;;;;13.85;9.60;;;;;;;;;;5028390;28;20225;-65
2023/10/24 08:45:30;;;;;;;19.75;10.32;;;;;;;;;;5027987;28;20210;-65
2023/10/24 08:47:56;;;;;;;14.85;10.43;;;;;;;;;;5031437;28;20265;-65
2023/10/24 08:50:21;;;;;;;13.68;9.23;;;;;;;;;;5030352;28;20248;-65
2023/10/24 08:52:47;;;;;;;12.60;10.05;;;;;;;;;;5031568;28;20666;-65
2023/10/24 08:55:12;;;;;;;14.18;10.15;;;;;;;;;;5031161;28;20667;-65
2023/10/24 08:57:42;;;;;;;14.88;9.10;;;;;;;;;;5031229;28;20174;-65
2023/10/24 09:00:11;;;;;;;12.18;9.35;;;;;;;;;;5031069;28;20186;-66
2023/10/24 09:02:36;;;;;;;11.68;9.13;;;;;;;;;;5031560;28;20186;-66
2023/10/24 09:05:02;;;;;;;16.00;9.43;;;;;;;;;;5031354;28;20221;-66
2023/10/24 09:07:28;;;;;;;11.70;8.90;;;;;;;;;;5032083;28;20499;-65
2023/10/24 09:09:53;;;;;;;9.25;7.57;;;;;;;;;;5032180;28;20221;-65
2023/10/24 09:12:18;;;;;;;9.48;7.93;;;;;;;;;;5031337;28;20201;-65
2023/10/24 09:14:44;;;;;;;12.50;8.70;;;;;;;;;;5031880;28;20187;-65
2023/10/24 09:17:10;;;;;;;9.10;7.30;;;;;;;;;;5030053;28;20185;-65
2023/10/24 09:19:39;;;;;;;10.32;7.88;;;;;;;;;;5032367;28;20217;-66
2023/10/24 09:22:05;;;;;;;11.63;7.78;;;;;;;;;;5031627;28;20549;-66
2023/10/24 09:24:30;;;;;;;10.45;7.07;;;;;;;;;;5031999;28;20194;-66
2023/10/24 09:26:56;;;;;;;10.52;7.47;;;;;;;;;;5031257;28;20265;-66
2023/10/24 09:29:21;;;;;;;8.93;7.13;;;;;;;;;;5030652;28;20174;-66
2023/10/24 09:31:47;;;;;;;9.38;7.57;;;;;;;;;;5031531;28;20292;-65
2023/10/24 09:34:13;;;;;;;8.20;6.18;;;;;;;;;;5029324;28;20569;-65
2023/10/24 09:36:38;;;;;;;7.40;5.90;;;;;;;;;;5029221;28;20170;-66
2023/10/24 09:39:03;;;;;;;9.45;6.75;;;;;;;;;;5029884;28;20179;-65
2023/10/24 09:41:30;;;;;;;11.80;5.70;;;;;;;;;;5030253;28;20204;-65
2023/10/24 09:43:57;;;;;;;8.15;5.53;;;;;;;;;;5027582;28;20190;-65
2023/10/24 09:46:22;;;;;;;8.13;5.65;;;;;;;;;;5030986;28;20178;-65
2023/10/24 09:48:49;;;;;;;13.20;6.35;;;;;;;;;;5031165;28;20265;-66
2023/10/24 09:51:17;;;;;;;8.63;6.10;;;;;;;;;;5031332;28;20201;-66
2023/10/24 09:53:43;;;;;;;10.90;6.78;;;;;;;;;;5030586;28;20198;-66
2023/10/24 09:56:08;;;;;;;8.50;6.15;;;;;;;;;;5030571;28;20178;-66
2023/10/24 09:58:38;;;;;;;10.05;7.35;;;;;;;;;;5029774;28;20547;-66
2023/10/24 10:01:03;;;;;;;9.65;6.32;;;;;;;;;;5031152;28;20178;-66
2023/10/24 10:03:29;;;;;;;10.38;7.38;;;;;;;;;;5030292;28;20673;-66
2023/10/24 10:05:56;;;;;;;10.07;8.05;;;;;;;;;;5031104;28;20185;-66
2023/10/24 10:08:21;;;;;;;9.65;7.95;;;;;;;;;;5030750;28;20178;-66
2023/10/24 10:10:47;;;;;;;15.00;9.38;;;;;;;;;;5031476;28;20205;-66
2023/10/24 10:13:15;;;;;;;12.07;9.30;;;;;;;;;;5030142;28;20198;-66
2023/10/24 10:15:49;;;;;;;12.63;9.57;;;;;;;;;;5031273;28;20654;-66
2023/10/24 10:18:26;;;;;;;13.05;9.70;;;;;;;;;;5030392;28;20186;-66
2023/10/24 10:20:59;;;;;;;12.10;8.90;;;;;;;;;;5030758;28;20646;-66
2023/10/24 10:23:45;;;;;;;13.82;10.13;;;;;;;;;;5030489;28;20278;-66
2023/10/24 10:26:29;;;;;;;13.50;9.45;;;;;;;;;;4999969;28;20222;-66
2023/10/24 10:28:59;;;;;;;14.88;9.95;;;;;;;;;;5030308;28;20295;-66
2023/10/24 10:31:28;;;;;;;14.50;9.88;;;;;;;;;;5030392;28;20198;-66
2023/10/24 10:33:55;;;;;;;14.85;10.65;;;;;;;;;;5028122;28;20214;-66
2023/10/24 10:36:20;;;;;;;16.95;9.20;;;;;;;;;;5028853;28;20608;-66
2023/10/24 10:38:46;;;;;;;13.55;9.60;;;;;;;;;;5028436;28;20185;-66
2023/10/24 10:41:21;;;;;;;14.02;9.57;;;;;;;;;;5030108;28;20263;-66
2023/10/24 10:43:46;;;;;;;13.32;9.60;;;;;;;;;;5028453;28;20430;-66
2023/10/24 10:46:16;;;;;;;11.10;8.82;;;;;;;;;;5030590;28;20205;-66
2023/10/24 10:48:42;;;;;;;13.07;9.27;;;;;;;;;;5030140;28;20178;-66
2023/10/24 10:51:07;;;;;;;11.65;8.73;;;;;;;;;;5030906;28;20328;-66
2023/10/24 10:53:42;;;;;;;15.23;8.77;;;;;;;;;;5029684;28;20328;-66
2023/10/24 10:56:14;;;;;;;10.57;8.82;;;;;;;;;;5029294;28;20228;-67
2023/10/24 10:58:40;;;;;;;11.35;8.52;;;;;;;;;;5026243;28;20170;-66
2023/10/24 11:01:28;;;;;;;11.43;8.88;;;;;;;;;;5030275;28;20282;-66
2023/10/24 11:03:56;;;;;;;11.00;8.63;;;;;;;;;;5027252;28;20216;-66
2023/10/24 11:06:23;;;;;;;13.13;8.00;;;;;;;;;;5030116;28;20186;-67
2023/10/24 11:09:07;;;;;;;10.95;9.00;;;;;;;;;;5030495;28;20175;-66
2023/10/24 11:11:33;;;;;;;10.07;8.43;;;;;;;;;;5023874;28;20220;-66
2023/10/24 11:14:18;;;;;;;11.48;9.32;;;;;;;;;;5028594;28;20730;-66
2023/10/24 11:16:48;;;;;;;9.75;8.55;;;;;;;;;;5032532;28;20166;-66
2023/10/24 11:19:17;;;;;;;13.07;9.23;;;;;;;;;;5031426;28;20201;-66
2023/10/24 11:21:45;;;;;;;10.07;8.27;;;;;;;;;;5033526;28;20174;-66
2023/10/24 11:24:10;;;;;;;12.07;8.48;;;;;;;;;;5033913;28;20225;-66
2023/10/24 11:26:35;;;;;;;11.95;9.45;;;;;;;;;;5032156;28;20209;-66
2023/10/24 11:29:00;;;;;;;9.90;7.88;;;;;;;;;;5032838;28;20193;-66
2023/10/24 11:31:26;;;;;;;8.73;6.75;;;;;;;;;;5034148;28;20673;-66
2023/10/24 11:33:52;;;;;;;11.65;7.82;;;;;;;;;;5031387;28;20210;-66
2023/10/24 11:36:17;;;;;;;7.78;6.97;;;;;;;;;;5031230;28;20401;-66
2023/10/24 11:38:42;;;;;;;7.28;6.35;;;;;;;;;;5030736;28;20182;-66
2023/10/24 11:41:07;;;;;;;9.60;5.85;;;;;;;;;;5033309;28;20550;-66
2023/10/24 11:43:33;;;;;;;8.82;6.47;;;;;;;;;;5034038;28;20232;-65
2023/10/24 11:45:58;;;;;;;9.30;5.03;;;;;;;;;;5032963;28;20186;-65
2023/10/24 11:48:23;;;;;;;6.47;4.95;;;;;;;;;;5031567;28;20183;-65
2023/10/24 11:50:49;;;;;;;7.95;5.38;;;;;;;;;;5032631;28;20213;-65
2023/10/24 11:53:21;;;;;;;5.93;4.90;;;;;;;;;;5030847;28;20202;-66
2023/10/24 11:55:49;;;;;;;5.93;5.32;;;;;;;;;;5033434;28;20677;-66
2023/10/24 11:58:15;;;;;;;8.07;5.32;;;;;;;;;;5032492;28;20178;-66
2023/10/24 12:00:42;;;;;;;6.55;5.30;;;;;;;;;;5030732;28;20174;-65
2023/10/24 12:03:07;;;;;;;6.07;4.53;;;;;;;;;;5032254;28;20286;-65
2023/10/24 12:05:33;;;;;;;5.82;4.88;;;;;;;;;;5033064;28;20678;-66
2023/10/24 12:07:59;;;;;;;5.90;4.72;;;;;;;;;;5032126;28;20178;-65
2023/10/24 12:10:25;;;;;;;5.53;4.40;;;;;;;;;;5032788;28;20206;-66
2023/10/24 12:12:55;;;;;;;4.95;4.45;;;;;;;;;;5041121;28;20286;-66
2023/10/24 12:15:20;;;;;;;5.82;4.78;;;;;;;;;;5031273;28;20184;-66
2023/10/24 12:17:45;;;;;;;4.63;4.10;;;;;;;;;;5032722;28;20697;-66
2023/10/24 12:20:11;;;;;;;6.80;4.43;;;;;;;;;;5032235;28;20182;-66
2023/10/24 12:22:36;;;;;;;3.63;3.30;;;;;;;;;;5032301;28;20269;-66
2023/10/24 12:25:01;;;;;;;6.25;3.75;;;;;;;;;;5032426;28;20174;-66
2023/10/24 12:27:26;;;;;;;5.40;3.78;;;;;;;;;;5030386;28;20607;-66
2023/10/24 12:29:52;;;;;;;6.40;3.75;;;;;;;;;;5032332;28;20555;-66
2023/10/24 12:32:17;;;;;;;4.45;3.42;;;;;;;;;;5033035;28;20933;-66
2023/10/24 12:34:42;;;;;;;3.80;3.42;;;;;;;;;;5029674;28;20222;-66
2023/10/24 12:37:07;;;;;;;3.92;2.92;;;;;;;;;;5030990;28;20582;-66
2023/10/24 12:39:33;;;;;;;3.92;3.35;;;;;;;;;;5032636;28;20174;-66
2023/10/24 12:41:58;;;;;;;3.95;2.50;;;;;;;;;;5032022;28;20177;-66
2023/10/24 12:44:23;;;;;;;3.28;2.97;;;;;;;;;;5032429;28;20194;-66
2023/10/24 12:46:48;;;;;;;3.63;2.60;;;;;;;;;;5030845;28;20174;-66
2023/10/24 12:49:16;;;;;;;3.80;2.25;;;;;;;;;;5031828;28;20662;-66
2023/10/24 12:51:42;;;;;;;3.65;2.70;;;;;;;;;;5031611;28;20205;-66
2023/10/24 12:54:07;;;;;;;2.97;2.60;;;;;;;;;;5032601;28;20340;-67
2023/10/24 12:56:33;;;;;;;3.63;2.55;;;;;;;;;;5030599;28;20720;-66
2023/10/24 12:58:58;;;;;;;2.83;2.05;;;;;;;;;;5031228;28;20186;-66
2023/10/24 13:01:24;;;;;;;5.38;2.40;;;;;;;;;;5027085;28;20201;-67
2023/10/24 13:03:50;;;;;;;5.65;2.03;;;;;;;;;;5032320;28;20453;-66
2023/10/24 13:06:15;;;;;;;5.53;2.75;;;;;;;;;;5031968;28;20554;-66
2023/10/24 13:08:40;;;;;;;2.65;2.28;;;;;;;;;;5032497;28;20731;-66
2023/10/24 13:11:05;;;;;;;2.70;1.98;;;;;;;;;;5032289;28;20198;-66
2023/10/24 13:13:30;;;;;;;4.97;2.10;;;;;;;;;;5031899;28;20194;-66
2023/10/24 13:15:56;;;;;;;3.22;1.80;;;;;;;;;;5032391;28;20599;-66
2023/10/24 13:18:21;;;;;;;3.45;1.90;;;;;;;;;;5027771;28;20241;-66
2023/10/24 13:20:46;;;;;;;3.83;1.65;;;;;;;;;;5042942;28;20185;-66
2023/10/24 13:23:11;;;;;;;2.78;1.63;;;;;;;;;;5030446;28;20210;-66
2023/10/24 13:25:38;;;;;;;2.30;1.52;;;;;;;;;;5031074;28;20187;-66
2023/10/24 13:28:04;;;;;;;3.35;1.95;;;;;;;;;;5032142;28;20214;-66
2023/10/24 13:30:31;;;;;;;3.40;1.73;;;;;;;;;;5030430;28;20252;-66
2023/10/24 13:32:56;;;;;;;3.50;1.88;;;;;;;;;;5032179;28;20198;-66
2023/10/24 13:35:21;;;;;;;2.10;1.60;;;;;;;;;;5029801;28;20719;-66
2023/10/24 13:37:46;;;;;;;2.55;1.90;;;;;;;;;;5030167;28;20182;-66
2023/10/24 13:40:11;;;;;;;2.10;1.88;;;;;;;;;;5030195;28;20202;-66
2023/10/24 13:42:37;;;;;;;2.17;1.40;;;;;;;;;;5032105;28;20269;-66
2023/10/24 13:45:03;;;;;;;2.28;1.33;;;;;;;;;;5031626;28;20269;-67
2023/10/24 13:47:29;;;;;;;2.33;1.75;;;;;;;;;;5029901;28;20677;-66
2023/10/24 13:49:54;;;;;;;5.03;1.85;;;;;;;;;;5030451;28;20214;-66
2023/10/24 13:52:19;;;;;;;1.85;1.50;;;;;;;;;;5031999;28;20193;-66
2023/10/24 13:54:46;;;;;;;3.13;1.88;;;;;;;;;;5028718;28;20205;-66
2023/10/24 13:57:11;;;;;;;4.53;1.70;;;;;;;;;;5031116;28;20179;-66
2023/10/24 13:59:36;;;;;;;5.05;1.70;;;;;;;;;;5030434;28;20179;-65
2023/10/24 14:02:02;;;;;;;2.33;2.13;;;;;;;;;;5030279;28;20661;-65
2023/10/24 14:04:27;;;;;;;2.17;1.83;;;;;;;;;;5027968;28;20255;-65
2023/10/24 14:06:54;;;;;;;3.67;2.05;;;;;;;;;;5029654;28;20174;-65
2023/10/24 14:09:20;;;;;;;2.92;1.83;;;;;;;;;;5031056;28;20209;-65
2023/10/24 14:11:45;;;;;;;9.05;2.50;;;;;;;;;;5029293;28;20712;-65
2023/10/24 14:14:11;;;;;;;2.95;1.92;;;;;;;;;;5029910;28;20201;-65
2023/10/24 14:16:37;;;;;;;2.42;1.90;;;;;;;;;;5030244;28;20309;-66
2023/10/24 14:19:02;;;;;;;3.22;2.38;;;;;;;;;;5031389;28;20286;-65